Auberry, California
Current Conditions -  °F | °C
As of 3:53 PM on Sunday 25 Jan 2015 (Local Time) from KFAT Reporting Station
Haze Haze  
Wind Chill: 12°   Ceiling: Unl
Heat Index: 12°   Visibility: 6mi
Dew Point:   Wind: 5mph
Humidity: 66%   Direction: 330°NNW
Pressure: 30.06"   Gusts: NA
Location:  37.08°N, 119.49°W
Report Text: KFAT 252353Z 33004KT 6SM HZ CLR 12/06 A3006 RMK AO2 SLP179 T01220061 10128 20044 56021
Loading
Personal Weather Stations






























Interactive Weather Map New forecast layout! Learn more

10-Day Weather Forecast

Advertisements
Track Severe Weather on mobile